sensor_id;sensor_type;location;lat;lon;timestamp;P1;durP1;ratioP1;P2;durP2;ratioP2
60318;SDS011;46163;52.306;5.634;2022-09-23T00:00:12;0.70;;;0.70;;
60318;SDS011;46163;52.306;5.634;2022-09-23T00:02:38;0.90;;;0.90;;
60318;SDS011;46163;52.306;5.634;2022-09-23T00:05:05;1.02;;;1.00;;
60318;SDS011;46163;52.306;5.634;2022-09-23T00:07:34;0.57;;;0.57;;
60318;SDS011;46163;52.306;5.634;2022-09-23T00:10:00;0.70;;;0.70;;
60318;SDS011;46163;52.306;5.634;2022-09-23T00:12:26;0.47;;;0.47;;
60318;SDS011;46163;52.306;5.634;2022-09-23T00:14:53;0.60;;;0.60;;
60318;SDS011;46163;52.306;5.634;2022-09-23T00:17:20;0.77;;;0.77;;
60318;SDS011;46163;52.306;5.634;2022-09-23T00:19:45;0.70;;;0.70;;
60318;SDS011;46163;52.306;5.634;2022-09-23T00:22:12;0.65;;;0.57;;
60318;SDS011;46163;52.306;5.634;2022-09-23T00:24:37;0.70;;;0.70;;
60318;SDS011;46163;52.306;5.634;2022-09-23T00:27:04;0.80;;;0.80;;
60318;SDS011;46163;52.306;5.634;2022-09-23T00:29:30;0.50;;;0.50;;
60318;SDS011;46163;52.306;5.634;2022-09-23T00:31:55;0.70;;;0.70;;
60318;SDS011;46163;52.306;5.634;2022-09-23T00:34:21;0.70;;;0.70;;
60318;SDS011;46163;52.306;5.634;2022-09-23T00:36:46;0.55;;;0.55;;
60318;SDS011;46163;52.306;5.634;2022-09-23T00:39:12;0.77;;;0.77;;
60318;SDS011;46163;52.306;5.634;2022-09-23T00:41:38;0.63;;;0.63;;
60318;SDS011;46163;52.306;5.634;2022-09-23T00:49:39;0.80;;;0.80;;
60318;SDS011;46163;52.306;5.634;2022-09-23T00:52:06;0.70;;;0.70;;
60318;SDS011;46163;52.306;5.634;2022-09-23T00:54:37;0.65;;;0.65;;
60318;SDS011;46163;52.306;5.634;2022-09-23T00:57:03;0.80;;;0.80;;
60318;SDS011;46163;52.306;5.634;2022-09-23T00:59:29;0.70;;;0.70;;
60318;SDS011;46163;52.306;5.634;2022-09-23T01:01:56;0.50;;;0.50;;
60318;SDS011;46163;52.306;5.634;2022-09-23T01:04:25;0.80;;;0.80;;
60318;SDS011;46163;52.306;5.634;2022-09-23T01:09:18;0.75;;;0.75;;
60318;SDS011;46163;52.306;5.634;2022-09-23T01:11:49;0.90;;;0.90;;
60318;SDS011;46163;52.306;5.634;2022-09-23T01:33:46;0.70;;;0.70;;
60318;SDS011;46163;52.306;5.634;2022-09-23T01:36:22;0.70;;;0.70;;
60318;SDS011;46163;52.306;5.634;2022-09-23T01:41:33;0.65;;;0.65;;
60318;SDS011;46163;52.306;5.634;2022-09-23T01:44:09;0.68;;;0.68;;
60318;SDS011;46163;52.306;5.634;2022-09-23T01:47:01;0.70;;;0.70;;
60318;SDS011;46163;52.306;5.634;2022-09-23T01:49:46;0.70;;;0.70;;
60318;SDS011;46163;52.306;5.634;2022-09-23T01:52:23;0.60;;;0.60;;
60318;SDS011;46163;52.306;5.634;2022-09-23T01:58:06;0.70;;;0.70;;
60318;SDS011;46163;52.306;5.634;2022-09-23T02:00:37;1.00;;;0.75;;
60318;SDS011;46163;52.306;5.634;2022-09-23T02:03:15;0.70;;;0.70;;
60318;SDS011;46163;52.306;5.634;2022-09-23T02:05:46;0.70;;;0.70;;
60318;SDS011;46163;52.306;5.634;2022-09-23T02:08:20;0.60;;;0.60;;
60318;SDS011;46163;52.306;5.634;2022-09-23T02:11:07;0.80;;;0.80;;
60318;SDS011;46163;52.306;5.634;2022-09-23T02:21:33;0.70;;;0.70;;
60318;SDS011;46163;52.306;5.634;2022-09-23T02:24:08;0.82;;;0.82;;
60318;SDS011;46163;52.306;5.634;2022-09-23T02:40:52;0.60;;;0.60;;
60318;SDS011;46163;52.306;5.634;2022-09-23T02:46:27;0.70;;;0.70;;
60318;SDS011;46163;52.306;5.634;2022-09-23T02:49:02;0.65;;;0.65;;
60318;SDS011;46163;52.306;5.634;2022-09-23T02:51:35;0.55;;;0.55;;
60318;SDS011;46163;52.306;5.634;2022-09-23T02:54:02;0.82;;;0.82;;
60318;SDS011;46163;52.306;5.634;2022-09-23T02:56:31;0.77;;;0.77;;
60318;SDS011;46163;52.306;5.634;2022-09-23T02:58:57;0.70;;;0.70;;
60318;SDS011;46163;52.306;5.634;2022-09-23T03:07:04;0.70;;;0.70;;
60318;SDS011;46163;52.306;5.634;2022-09-23T03:13:11;0.90;;;0.90;;
60318;SDS011;46163;52.306;5.634;2022-09-23T03:18:21;0.98;;;0.80;;
60318;SDS011;46163;52.306;5.634;2022-09-23T03:21:00;0.70;;;0.70;;
60318;SDS011;46163;52.306;5.634;2022-09-23T03:23:33;0.70;;;0.70;;
60318;SDS011;46163;52.306;5.634;2022-09-23T03:26:02;0.80;;;0.80;;
60318;SDS011;46163;52.306;5.634;2022-09-23T03:28:34;0.90;;;0.90;;
60318;SDS011;46163;52.306;5.634;2022-09-23T03:31:01;0.88;;;0.88;;
60318;SDS011;46163;52.306;5.634;2022-09-23T03:33:27;0.75;;;0.73;;
60318;SDS011;46163;52.306;5.634;2022-09-23T03:36:03;0.80;;;0.80;;
60318;SDS011;46163;52.306;5.634;2022-09-23T03:38:50;0.70;;;0.70;;
60318;SDS011;46163;52.306;5.634;2022-09-23T03:41:28;0.63;;;0.63;;
60318;SDS011;46163;52.306;5.634;2022-09-23T03:43:57;0.80;;;0.80;;
60318;SDS011;46163;52.306;5.634;2022-09-23T03:46:26;0.65;;;0.65;;
60318;SDS011;46163;52.306;5.634;2022-09-23T03:48:58;0.90;;;0.90;;
60318;SDS011;46163;52.306;5.634;2022-09-23T03:51:33;0.88;;;0.88;;
60318;SDS011;46163;52.306;5.634;2022-09-23T03:53:58;0.47;;;0.47;;
60318;SDS011;46163;52.306;5.634;2022-09-23T03:56:24;0.70;;;0.70;;
60318;SDS011;46163;52.306;5.634;2022-09-23T03:58:49;0.77;;;0.77;;
60318;SDS011;46163;52.306;5.634;2022-09-23T04:01:16;0.60;;;0.60;;
60318;SDS011;46163;52.306;5.634;2022-09-23T04:03:41;0.70;;;0.70;;
60318;SDS011;46163;52.306;5.634;2022-09-23T04:06:07;0.77;;;0.77;;
60318;SDS011;46163;52.306;5.634;2022-09-23T04:08:34;0.80;;;0.80;;
60318;SDS011;46163;52.306;5.634;2022-09-23T04:11:00;0.80;;;0.80;;
60318;SDS011;46163;52.306;5.634;2022-09-23T04:13:27;0.68;;;0.68;;
60318;SDS011;46163;52.306;5.634;2022-09-23T04:15:53;0.77;;;0.77;;
60318;SDS011;46163;52.306;5.634;2022-09-23T04:18:19;0.60;;;0.60;;
60318;SDS011;46163;52.306;5.634;2022-09-23T04:20:45;0.60;;;0.60;;
60318;SDS011;46163;52.306;5.634;2022-09-23T04:23:11;0.70;;;0.70;;
60318;SDS011;46163;52.306;5.634;2022-09-23T04:25:42;0.60;;;0.60;;
60318;SDS011;46163;52.306;5.634;2022-09-23T04:28:09;0.63;;;0.63;;
60318;SDS011;46163;52.306;5.634;2022-09-23T04:30:37;0.70;;;0.70;;
60318;SDS011;46163;52.306;5.634;2022-09-23T04:33:10;0.60;;;0.60;;
60318;SDS011;46163;52.306;5.634;2022-09-23T04:35:36;0.50;;;0.50;;
60318;SDS011;46163;52.306;5.634;2022-09-23T04:38:03;3.83;;;0.60;;
60318;SDS011;46163;52.306;5.634;2022-09-23T04:40:29;0.80;;;0.80;;
60318;SDS011;46163;52.306;5.634;2022-09-23T04:42:56;0.60;;;0.60;;
60318;SDS011;46163;52.306;5.634;2022-09-23T04:45:22;0.60;;;0.60;;
60318;SDS011;46163;52.306;5.634;2022-09-23T04:47:48;0.65;;;0.65;;
60318;SDS011;46163;52.306;5.634;2022-09-23T04:50:13;0.90;;;0.90;;
60318;SDS011;46163;52.306;5.634;2022-09-23T04:52:39;0.65;;;0.65;;
60318;SDS011;46163;52.306;5.634;2022-09-23T04:55:04;0.70;;;0.70;;
60318;SDS011;46163;52.306;5.634;2022-09-23T04:57:30;0.73;;;0.73;;
60318;SDS011;46163;52.306;5.634;2022-09-23T04:59:58;0.60;;;0.60;;
60318;SDS011;46163;52.306;5.634;2022-09-23T05:02:24;0.80;;;0.80;;
60318;SDS011;46163;52.306;5.634;2022-09-23T05:04:50;0.70;;;0.70;;
60318;SDS011;46163;52.306;5.634;2022-09-23T05:07:16;0.60;;;0.60;;
60318;SDS011;46163;52.306;5.634;2022-09-23T05:09:42;0.70;;;0.70;;
60318;SDS011;46163;52.306;5.634;2022-09-23T05:12:08;0.90;;;0.90;;
60318;SDS011;46163;52.306;5.634;2022-09-23T05:14:34;0.80;;;0.80;;
60318;SDS011;46163;52.306;5.634;2022-09-23T05:16:59;0.90;;;0.90;;
60318;SDS011;46163;52.306;5.634;2022-09-23T05:19:25;0.90;;;0.90;;
60318;SDS011;46163;52.306;5.634;2022-09-23T05:21:51;0.85;;;0.85;;
60318;SDS011;46163;52.306;5.634;2022-09-23T05:24:16;0.80;;;0.80;;
60318;SDS011;46163;52.306;5.634;2022-09-23T05:26:41;0.98;;;0.98;;
60318;SDS011;46163;52.306;5.634;2022-09-23T05:29:07;0.75;;;0.75;;
60318;SDS011;46163;52.306;5.634;2022-09-23T05:31:33;0.90;;;0.90;;
60318;SDS011;46163;52.306;5.634;2022-09-23T05:33:59;0.85;;;0.85;;
60318;SDS011;46163;52.306;5.634;2022-09-23T05:38:52;1.23;;;1.05;;
60318;SDS011;46163;52.306;5.634;2022-09-23T05:41:20;0.90;;;0.90;;
60318;SDS011;46163;52.306;5.634;2022-09-23T05:43:47;1.02;;;1.00;;
60318;SDS011;46163;52.306;5.634;2022-09-23T05:46:13;0.90;;;0.90;;
60318;SDS011;46163;52.306;5.634;2022-09-23T05:48:41;2.58;;;0.90;;
60318;SDS011;46163;52.306;5.634;2022-09-23T05:51:12;1.03;;;1.03;;
60318;SDS011;46163;52.306;5.634;2022-09-23T05:53:49;4.38;;;1.10;;
60318;SDS011;46163;52.306;5.634;2022-09-23T05:56:18;1.00;;;1.00;;
60318;SDS011;46163;52.306;5.634;2022-09-23T05:58:49;1.45;;;1.00;;
60318;SDS011;46163;52.306;5.634;2022-09-23T06:01:17;0.93;;;0.93;;
60318;SDS011;46163;52.306;5.634;2022-09-23T06:03:49;1.77;;;1.30;;
60318;SDS011;46163;52.306;5.634;2022-09-23T06:06:16;1.73;;;1.17;;
60318;SDS011;46163;52.306;5.634;2022-09-23T06:08:55;1.08;;;1.08;;
60318;SDS011;46163;52.306;5.634;2022-09-23T06:11:31;1.02;;;1.02;;
60318;SDS011;46163;52.306;5.634;2022-09-23T06:13:58;0.80;;;0.80;;
60318;SDS011;46163;52.306;5.634;2022-09-23T06:16:25;1.90;;;1.05;;
60318;SDS011;46163;52.306;5.634;2022-09-23T06:18:51;1.00;;;1.00;;
60318;SDS011;46163;52.306;5.634;2022-09-23T06:21:16;0.95;;;0.95;;
60318;SDS011;46163;52.306;5.634;2022-09-23T06:23:43;1.08;;;0.95;;
60318;SDS011;46163;52.306;5.634;2022-09-23T06:26:10;0.95;;;0.95;;
60318;SDS011;46163;52.306;5.634;2022-09-23T06:31:05;0.90;;;0.90;;
60318;SDS011;46163;52.306;5.634;2022-09-23T06:33:33;0.80;;;0.80;;
60318;SDS011;46163;52.306;5.634;2022-09-23T06:36:00;1.13;;;0.90;;
60318;SDS011;46163;52.306;5.634;2022-09-23T06:38:28;0.90;;;0.90;;
60318;SDS011;46163;52.306;5.634;2022-09-23T06:40:55;0.85;;;0.85;;
60318;SDS011;46163;52.306;5.634;2022-09-23T06:43:22;1.23;;;1.10;;
60318;SDS011;46163;52.306;5.634;2022-09-23T06:45:52;1.00;;;1.00;;
60318;SDS011;46163;52.306;5.634;2022-09-23T06:48:18;0.85;;;0.85;;
60318;SDS011;46163;52.306;5.634;2022-09-23T06:50:44;1.20;;;1.13;;
60318;SDS011;46163;52.306;5.634;2022-09-23T06:53:10;0.82;;;0.82;;
60318;SDS011;46163;52.306;5.634;2022-09-23T06:55:36;1.13;;;1.08;;
60318;SDS011;46163;52.306;5.634;2022-09-23T06:58:02;1.00;;;1.00;;
60318;SDS011;46163;52.306;5.634;2022-09-23T07:00:28;1.00;;;1.00;;
60318;SDS011;46163;52.306;5.634;2022-09-23T07:02:54;1.13;;;1.08;;
60318;SDS011;46163;52.306;5.634;2022-09-23T07:05:22;1.08;;;1.08;;
60318;SDS011;46163;52.306;5.634;2022-09-23T07:07:47;0.95;;;0.95;;
60318;SDS011;46163;52.306;5.634;2022-09-23T07:10:13;1.00;;;1.00;;
60318;SDS011;46163;52.306;5.634;2022-09-23T07:12:40;0.85;;;0.85;;
60318;SDS011;46163;52.306;5.634;2022-09-23T07:15:06;0.90;;;0.90;;
60318;SDS011;46163;52.306;5.634;2022-09-23T07:17:32;0.90;;;0.90;;
60318;SDS011;46163;52.306;5.634;2022-09-23T07:19:59;0.75;;;0.75;;
60318;SDS011;46163;52.306;5.634;2022-09-23T07:22:24;0.75;;;0.75;;
60318;SDS011;46163;52.306;5.634;2022-09-23T07:24:51;0.90;;;0.90;;
60318;SDS011;46163;52.306;5.634;2022-09-23T07:27:21;1.38;;;0.90;;
60318;SDS011;46163;52.306;5.634;2022-09-23T07:32:14;0.80;;;0.80;;
60318;SDS011;46163;52.306;5.634;2022-09-23T07:34:40;0.90;;;0.90;;
60318;SDS011;46163;52.306;5.634;2022-09-23T07:37:07;2.60;;;0.90;;
60318;SDS011;46163;52.306;5.634;2022-09-23T07:39:33;0.80;;;0.80;;
60318;SDS011;46163;52.306;5.634;2022-09-23T07:42:00;1.23;;;0.98;;
60318;SDS011;46163;52.306;5.634;2022-09-23T07:44:27;2.80;;;1.13;;
60318;SDS011;46163;52.306;5.634;2022-09-23T07:46:55;1.00;;;1.00;;
60318;SDS011;46163;52.306;5.634;2022-09-23T07:49:21;1.27;;;0.88;;
60318;SDS011;46163;52.306;5.634;2022-09-23T07:51:46;1.85;;;1.10;;
60318;SDS011;46163;52.306;5.634;2022-09-23T07:54:13;3.97;;;1.38;;
60318;SDS011;46163;52.306;5.634;2022-09-23T07:56:40;1.52;;;1.00;;
60318;SDS011;46163;52.306;5.634;2022-09-23T07:59:07;3.30;;;1.00;;
60318;SDS011;46163;52.306;5.634;2022-09-23T08:01:40;0.98;;;0.98;;
60318;SDS011;46163;52.306;5.634;2022-09-23T08:04:10;0.85;;;0.85;;
60318;SDS011;46163;52.306;5.634;2022-09-23T08:06:45;1.50;;;0.80;;
60318;SDS011;46163;52.306;5.634;2022-09-23T08:09:16;0.77;;;0.77;;
60318;SDS011;46163;52.306;5.634;2022-09-23T08:11:46;1.00;;;0.80;;
60318;SDS011;46163;52.306;5.634;2022-09-23T08:14:13;1.50;;;1.00;;
60318;SDS011;46163;52.306;5.634;2022-09-23T08:16:41;1.73;;;1.05;;
60318;SDS011;46163;52.306;5.634;2022-09-23T08:19:09;0.80;;;0.80;;
60318;SDS011;46163;52.306;5.634;2022-09-23T08:21:35;1.10;;;1.10;;
60318;SDS011;46163;52.306;5.634;2022-09-23T08:26:28;0.80;;;0.80;;
60318;SDS011;46163;52.306;5.634;2022-09-23T08:28:54;1.00;;;1.00;;
60318;SDS011;46163;52.306;5.634;2022-09-23T08:31:21;1.10;;;0.88;;
60318;SDS011;46163;52.306;5.634;2022-09-23T08:33:47;1.40;;;1.00;;
60318;SDS011;46163;52.306;5.634;2022-09-23T08:36:17;1.27;;;1.17;;
60318;SDS011;46163;52.306;5.634;2022-09-23T08:38:43;0.95;;;0.95;;
60318;SDS011;46163;52.306;5.634;2022-09-23T08:41:42;1.55;;;0.73;;
60318;SDS011;46163;52.306;5.634;2022-09-23T08:44:09;2.55;;;1.00;;
60318;SDS011;46163;52.306;5.634;2022-09-23T08:46:36;1.17;;;0.98;;
60318;SDS011;46163;52.306;5.634;2022-09-23T08:49:08;1.27;;;1.15;;
60318;SDS011;46163;52.306;5.634;2022-09-23T08:51:45;1.75;;;0.88;;
60318;SDS011;46163;52.306;5.634;2022-09-23T08:54:12;0.70;;;0.70;;
60318;SDS011;46163;52.306;5.634;2022-09-23T08:56:41;0.75;;;0.75;;
60318;SDS011;46163;52.306;5.634;2022-09-23T09:01:57;0.98;;;0.98;;
60318;SDS011;46163;52.306;5.634;2022-09-23T09:09:41;1.20;;;1.10;;
60318;SDS011;46163;52.306;5.634;2022-09-23T09:15:21;0.65;;;0.65;;
60318;SDS011;46163;52.306;5.634;2022-09-23T09:17:36;0.82;;;0.82;;
60318;SDS011;46163;52.306;5.634;2022-09-23T09:20:48;1.73;;;0.77;;
60318;SDS011;46163;52.306;5.634;2022-09-23T09:23:28;1.80;;;0.98;;
60318;SDS011;46163;52.306;5.634;2022-09-23T09:26:21;1.13;;;0.80;;
60318;SDS011;46163;52.306;5.634;2022-09-23T09:28:51;0.70;;;0.70;;
60318;SDS011;46163;52.306;5.634;2022-09-23T09:34:08;0.90;;;0.90;;
60318;SDS011;46163;52.306;5.634;2022-09-23T09:39:29;1.70;;;0.90;;
60318;SDS011;46163;52.306;5.634;2022-09-23T09:41:55;1.15;;;0.70;;
60318;SDS011;46163;52.306;5.634;2022-09-23T09:50:12;1.15;;;1.00;;
60318;SDS011;46163;52.306;5.634;2022-09-23T09:52:44;0.90;;;0.90;;
60318;SDS011;46163;52.306;5.634;2022-09-23T09:57:54;1.02;;;1.02;;
60318;SDS011;46163;52.306;5.634;2022-09-23T10:03:02;1.27;;;0.95;;
60318;SDS011;46163;52.306;5.634;2022-09-23T10:05:48;1.33;;;1.00;;
60318;SDS011;46163;52.306;5.634;2022-09-23T10:14:02;0.88;;;0.88;;
60318;SDS011;46163;52.306;5.634;2022-09-23T10:16:30;1.77;;;1.10;;
60318;SDS011;46163;52.306;5.634;2022-09-23T10:18:58;2.33;;;1.38;;
60318;SDS011;46163;52.306;5.634;2022-09-23T10:21:30;3.70;;;1.60;;
60318;SDS011;46163;52.306;5.634;2022-09-23T10:24:01;2.65;;;2.13;;
60318;SDS011;46163;52.306;5.634;2022-09-23T10:26:30;3.42;;;2.40;;
60318;SDS011;46163;52.306;5.634;2022-09-23T10:28:56;7.50;;;2.80;;
60318;SDS011;46163;52.306;5.634;2022-09-23T10:31:33;4.53;;;2.92;;
60318;SDS011;46163;52.306;5.634;2022-09-23T10:34:19;5.35;;;3.13;;
60318;SDS011;46163;52.306;5.634;2022-09-23T10:37:02;4.45;;;3.47;;
60318;SDS011;46163;52.306;5.634;2022-09-23T10:39:51;4.78;;;3.50;;
60318;SDS011;46163;52.306;5.634;2022-09-23T10:45:38;4.25;;;3.28;;
60318;SDS011;46163;52.306;5.634;2022-09-23T10:51:06;4.72;;;3.22;;
60318;SDS011;46163;52.306;5.634;2022-09-23T10:54:00;5.50;;;3.47;;
60318;SDS011;46163;52.306;5.634;2022-09-23T10:56:42;5.50;;;3.47;;
60318;SDS011;46163;52.306;5.634;2022-09-23T10:59:48;5.38;;;3.05;;
60318;SDS011;46163;52.306;5.634;2022-09-23T11:02:34;4.70;;;2.90;;
60318;SDS011;46163;52.306;5.634;2022-09-23T11:08:04;4.20;;;2.95;;
60318;SDS011;46163;52.306;5.634;2022-09-23T11:22:22;3.25;;;2.30;;
60318;SDS011;46163;52.306;5.634;2022-09-23T11:25:03;3.83;;;2.58;;
60318;SDS011;46163;52.306;5.634;2022-09-23T11:28:01;3.88;;;2.47;;
60318;SDS011;46163;52.306;5.634;2022-09-23T11:30:43;4.07;;;2.25;;
60318;SDS011;46163;52.306;5.634;2022-09-23T11:36:36;2.40;;;2.08;;
60318;SDS011;46163;52.306;5.634;2022-09-23T11:39:16;4.78;;;2.13;;
60318;SDS011;46163;52.306;5.634;2022-09-23T11:41:48;3.38;;;2.20;;
60318;SDS011;46163;52.306;5.634;2022-09-23T11:47:25;2.83;;;1.80;;
60318;SDS011;46163;52.306;5.634;2022-09-23T11:50:04;2.58;;;1.75;;
60318;SDS011;46163;52.306;5.634;2022-09-23T11:55:21;2.92;;;1.75;;
60318;SDS011;46163;52.306;5.634;2022-09-23T11:57:56;3.33;;;1.70;;
60318;SDS011;46163;52.306;5.634;2022-09-23T12:00:30;3.20;;;1.50;;
60318;SDS011;46163;52.306;5.634;2022-09-23T12:03:04;1.80;;;1.42;;
60318;SDS011;46163;52.306;5.634;2022-09-23T12:05:49;1.50;;;1.40;;
60318;SDS011;46163;52.306;5.634;2022-09-23T12:21:19;1.40;;;1.30;;
60318;SDS011;46163;52.306;5.634;2022-09-23T12:27:07;2.70;;;1.60;;
60318;SDS011;46163;52.306;5.634;2022-09-23T12:29:44;1.60;;;1.33;;
60318;SDS011;46163;52.306;5.634;2022-09-23T12:32:16;2.17;;;1.27;;
60318;SDS011;46163;52.306;5.634;2022-09-23T12:34:46;1.40;;;1.30;;
60318;SDS011;46163;52.306;5.634;2022-09-23T12:37:23;1.48;;;1.35;;
60318;SDS011;46163;52.306;5.634;2022-09-23T12:39:51;1.30;;;1.02;;
60318;SDS011;46163;52.306;5.634;2022-09-23T12:42:19;3.33;;;1.27;;
60318;SDS011;46163;52.306;5.634;2022-09-23T12:44:47;2.78;;;1.40;;
60318;SDS011;46163;52.306;5.634;2022-09-23T12:49:47;1.65;;;1.13;;
60318;SDS011;46163;52.306;5.634;2022-09-23T12:54:44;1.25;;;1.20;;
60318;SDS011;46163;52.306;5.634;2022-09-23T12:57:12;1.20;;;1.10;;
60318;SDS011;46163;52.306;5.634;2022-09-23T13:02:25;1.80;;;1.30;;
60318;SDS011;46163;52.306;5.634;2022-09-23T13:07:50;1.05;;;1.05;;
60318;SDS011;46163;52.306;5.634;2022-09-23T13:10:29;0.95;;;0.95;;
60318;SDS011;46163;52.306;5.634;2022-09-23T13:15:33;2.03;;;1.23;;
60318;SDS011;46163;52.306;5.634;2022-09-23T13:20:47;1.70;;;1.37;;
60318;SDS011;46163;52.306;5.634;2022-09-23T13:25:53;1.55;;;1.13;;
60318;SDS011;46163;52.306;5.634;2022-09-23T13:30:56;2.70;;;1.10;;
60318;SDS011;46163;52.306;5.634;2022-09-23T13:33:32;1.85;;;1.05;;
60318;SDS011;46163;52.306;5.634;2022-09-23T13:36:07;2.38;;;0.98;;
60318;SDS011;46163;52.306;5.634;2022-09-23T13:38:35;1.85;;;1.02;;
60318;SDS011;46163;52.306;5.634;2022-09-23T13:41:02;1.38;;;1.02;;
60318;SDS011;46163;52.306;5.634;2022-09-23T13:43:35;2.40;;;1.10;;
60318;SDS011;46163;52.306;5.634;2022-09-23T13:46:07;0.80;;;0.80;;
60318;SDS011;46163;52.306;5.634;2022-09-23T13:48:42;1.02;;;1.00;;
60318;SDS011;46163;52.306;5.634;2022-09-23T13:51:09;1.95;;;1.23;;
60318;SDS011;46163;52.306;5.634;2022-09-23T13:53:38;1.25;;;1.17;;
60318;SDS011;46163;52.306;5.634;2022-09-23T13:56:11;0.98;;;0.93;;
60318;SDS011;46163;52.306;5.634;2022-09-23T13:58:38;1.00;;;1.00;;
60318;SDS011;46163;52.306;5.634;2022-09-23T14:01:08;3.83;;;0.93;;
60318;SDS011;46163;52.306;5.634;2022-09-23T14:03:44;4.47;;;0.98;;
60318;SDS011;46163;52.306;5.634;2022-09-23T14:06:11;1.00;;;1.00;;
60318;SDS011;46163;52.306;5.634;2022-09-23T14:08:43;0.93;;;0.90;;
60318;SDS011;46163;52.306;5.634;2022-09-23T14:11:44;1.52;;;1.05;;
60318;SDS011;46163;52.306;5.634;2022-09-23T14:14:03;1.30;;;1.00;;
60318;SDS011;46163;52.306;5.634;2022-09-23T14:16:37;1.10;;;1.00;;
60318;SDS011;46163;52.306;5.634;2022-09-23T14:19:04;0.80;;;0.80;;
60318;SDS011;46163;52.306;5.634;2022-09-23T14:21:36;2.53;;;1.00;;
60318;SDS011;46163;52.306;5.634;2022-09-23T14:26:35;2.17;;;0.93;;
60318;SDS011;46163;52.306;5.634;2022-09-23T14:29:03;1.20;;;1.10;;
60318;SDS011;46163;52.306;5.634;2022-09-23T14:31:30;0.98;;;0.98;;
60318;SDS011;46163;52.306;5.634;2022-09-23T14:33:56;1.00;;;1.00;;
60318;SDS011;46163;52.306;5.634;2022-09-23T14:36:22;2.38;;;1.05;;
60318;SDS011;46163;52.306;5.634;2022-09-23T14:39:07;1.15;;;0.90;;
60318;SDS011;46163;52.306;5.634;2022-09-23T14:41:38;3.05;;;1.00;;
60318;SDS011;46163;52.306;5.634;2022-09-23T14:44:06;1.98;;;1.00;;
60318;SDS011;46163;52.306;5.634;2022-09-23T14:46:51;0.80;;;0.80;;
60318;SDS011;46163;52.306;5.634;2022-09-23T14:49:20;0.90;;;0.90;;
60318;SDS011;46163;52.306;5.634;2022-09-23T14:57:24;1.03;;;0.97;;
60318;SDS011;46163;52.306;5.634;2022-09-23T14:59:58;0.85;;;0.85;;
60318;SDS011;46163;52.306;5.634;2022-09-23T15:02:33;1.08;;;0.98;;
60318;SDS011;46163;52.306;5.634;2022-09-23T15:07:43;2.33;;;1.02;;
60318;SDS011;46163;52.306;5.634;2022-09-23T15:10:18;1.75;;;0.98;;
60318;SDS011;46163;52.306;5.634;2022-09-23T15:12:47;1.27;;;1.13;;
60318;SDS011;46163;52.306;5.634;2022-09-23T15:15:14;5.85;;;0.90;;
60318;SDS011;46163;52.306;5.634;2022-09-23T15:17:41;2.28;;;1.25;;
60318;SDS011;46163;52.306;5.634;2022-09-23T15:20:16;1.25;;;1.15;;
60318;SDS011;46163;52.306;5.634;2022-09-23T15:25:34;1.75;;;0.88;;
60318;SDS011;46163;52.306;5.634;2022-09-23T15:30:36;2.15;;;1.00;;
60318;SDS011;46163;52.306;5.634;2022-09-23T15:33:02;0.70;;;0.70;;
60318;SDS011;46163;52.306;5.634;2022-09-23T15:35:28;0.70;;;0.70;;
60318;SDS011;46163;52.306;5.634;2022-09-23T15:37:56;0.90;;;0.90;;
60318;SDS011;46163;52.306;5.634;2022-09-23T15:40:25;0.57;;;0.57;;
60318;SDS011;46163;52.306;5.634;2022-09-23T15:42:53;1.10;;;1.00;;
60318;SDS011;46163;52.306;5.634;2022-09-23T15:45:27;2.17;;;1.02;;
60318;SDS011;46163;52.306;5.634;2022-09-23T15:48:05;4.72;;;1.20;;
60318;SDS011;46163;52.306;5.634;2022-09-23T15:50:36;1.08;;;0.98;;
60318;SDS011;46163;52.306;5.634;2022-09-23T15:53:03;2.28;;;0.93;;
60318;SDS011;46163;52.306;5.634;2022-09-23T15:55:30;2.00;;;1.17;;
60318;SDS011;46163;52.306;5.634;2022-09-23T15:57:56;1.17;;;1.08;;
60318;SDS011;46163;52.306;5.634;2022-09-23T16:00:21;1.52;;;1.30;;
60318;SDS011;46163;52.306;5.634;2022-09-23T16:02:47;2.47;;;1.60;;
60318;SDS011;46163;52.306;5.634;2022-09-23T16:05:28;3.38;;;1.80;;
60318;SDS011;46163;52.306;5.634;2022-09-23T16:08:01;9.85;;;2.50;;
60318;SDS011;46163;52.306;5.634;2022-09-23T16:10:28;4.70;;;2.28;;
60318;SDS011;46163;52.306;5.634;2022-09-23T16:12:54;8.48;;;2.88;;
60318;SDS011;46163;52.306;5.634;2022-09-23T16:15:22;4.57;;;2.65;;
60318;SDS011;46163;52.306;5.634;2022-09-23T16:17:49;4.30;;;3.07;;
60318;SDS011;46163;52.306;5.634;2022-09-23T16:20:15;6.95;;;2.90;;
60318;SDS011;46163;52.306;5.634;2022-09-23T16:22:52;6.07;;;2.70;;
60318;SDS011;46163;52.306;5.634;2022-09-23T16:25:21;5.88;;;2.92;;
60318;SDS011;46163;52.306;5.634;2022-09-23T16:27:51;5.45;;;2.60;;
60318;SDS011;46163;52.306;5.634;2022-09-23T16:30:19;3.55;;;2.40;;
60318;SDS011;46163;52.306;5.634;2022-09-23T16:32:52;4.30;;;2.60;;
60318;SDS011;46163;52.306;5.634;2022-09-23T16:35:20;6.18;;;2.50;;
60318;SDS011;46163;52.306;5.634;2022-09-23T16:37:47;5.10;;;2.33;;
60318;SDS011;46163;52.306;5.634;2022-09-23T16:40:13;6.38;;;2.40;;
60318;SDS011;46163;52.306;5.634;2022-09-23T16:42:43;3.20;;;2.05;;
60318;SDS011;46163;52.306;5.634;2022-09-23T16:45:11;4.13;;;1.98;;
60318;SDS011;46163;52.306;5.634;2022-09-23T16:47:47;8.00;;;2.25;;
60318;SDS011;46163;52.306;5.634;2022-09-23T16:52:44;3.38;;;2.00;;
60318;SDS011;46163;52.306;5.634;2022-09-23T16:55:11;3.38;;;1.90;;
60318;SDS011;46163;52.306;5.634;2022-09-23T16:57:37;2.75;;;1.80;;
60318;SDS011;46163;52.306;5.634;2022-09-23T17:00:04;4.07;;;2.13;;
60318;SDS011;46163;52.306;5.634;2022-09-23T17:02:55;3.30;;;1.83;;
60318;SDS011;46163;52.306;5.634;2022-09-23T17:05:39;2.25;;;1.65;;
60318;SDS011;46163;52.306;5.634;2022-09-23T17:08:05;3.58;;;1.98;;
60318;SDS011;46163;52.306;5.634;2022-09-23T17:10:31;3.83;;;1.63;;
60318;SDS011;46163;52.306;5.634;2022-09-23T17:12:57;6.40;;;2.30;;
60318;SDS011;46163;52.306;5.634;2022-09-23T17:15:24;3.33;;;1.70;;
60318;SDS011;46163;52.306;5.634;2022-09-23T17:17:50;4.70;;;1.85;;
60318;SDS011;46163;52.306;5.634;2022-09-23T17:20:15;3.03;;;1.70;;
60318;SDS011;46163;52.306;5.634;2022-09-23T17:22:42;6.10;;;1.88;;
60318;SDS011;46163;52.306;5.634;2022-09-23T17:25:08;4.32;;;1.70;;
60318;SDS011;46163;52.306;5.634;2022-09-23T17:27:34;2.35;;;1.55;;
60318;SDS011;46163;52.306;5.634;2022-09-23T17:30:01;14.10;;;2.33;;
60318;SDS011;46163;52.306;5.634;2022-09-23T17:32:29;1.63;;;1.48;;
60318;SDS011;46163;52.306;5.634;2022-09-23T17:34:55;2.67;;;1.80;;
60318;SDS011;46163;52.306;5.634;2022-09-23T17:37:28;2.17;;;1.58;;
60318;SDS011;46163;52.306;5.634;2022-09-23T17:39:57;1.70;;;1.52;;
60318;SDS011;46163;52.306;5.634;2022-09-23T17:42:23;4.18;;;1.60;;
60318;SDS011;46163;52.306;5.634;2022-09-23T17:44:49;2.85;;;1.48;;
60318;SDS011;46163;52.306;5.634;2022-09-23T17:47:15;2.85;;;1.90;;
60318;SDS011;46163;52.306;5.634;2022-09-23T17:49:41;3.08;;;1.50;;
60318;SDS011;46163;52.306;5.634;2022-09-23T17:52:10;1.70;;;1.42;;
60318;SDS011;46163;52.306;5.634;2022-09-23T17:54:36;2.50;;;1.60;;
60318;SDS011;46163;52.306;5.634;2022-09-23T17:57:01;2.22;;;1.40;;
60318;SDS011;46163;52.306;5.634;2022-09-23T17:59:28;2.10;;;1.40;;
60318;SDS011;46163;52.306;5.634;2022-09-23T18:01:54;1.70;;;1.50;;
60318;SDS011;46163;52.306;5.634;2022-09-23T18:04:19;3.15;;;1.58;;
60318;SDS011;46163;52.306;5.634;2022-09-23T18:06:45;2.88;;;1.73;;
60318;SDS011;46163;52.306;5.634;2022-09-23T18:09:11;2.30;;;1.50;;
60318;SDS011;46163;52.306;5.634;2022-09-23T18:11:38;4.30;;;1.65;;
60318;SDS011;46163;52.306;5.634;2022-09-23T18:14:06;1.90;;;1.50;;
60318;SDS011;46163;52.306;5.634;2022-09-23T18:16:37;3.33;;;1.55;;
60318;SDS011;46163;52.306;5.634;2022-09-23T18:19:04;2.13;;;1.35;;
60318;SDS011;46163;52.306;5.634;2022-09-23T18:21:31;2.13;;;1.52;;
60318;SDS011;46163;52.306;5.634;2022-09-23T18:23:59;2.08;;;1.42;;